sensor_id;sensor_type;location;lat;lon;timestamp;temperature;humidity
12853;DHT22;6495;51.808;7.478;2023-05-10T00:01:50;15.80;99.90
12853;DHT22;6495;51.808;7.478;2023-05-10T00:04:18;15.80;99.90
12853;DHT22;6495;51.808;7.478;2023-05-10T00:06:47;15.70;99.90
12853;DHT22;6495;51.808;7.478;2023-05-10T00:09:17;15.70;99.90
12853;DHT22;6495;51.808;7.478;2023-05-10T00:11:45;15.70;99.90
12853;DHT22;6495;51.808;7.478;2023-05-10T00:14:13;15.70;99.90
12853;DHT22;6495;51.808;7.478;2023-05-10T00:16:41;15.70;99.90
12853;DHT22;6495;51.808;7.478;2023-05-10T00:19:09;15.70;99.90
12853;DHT22;6495;51.808;7.478;2023-05-10T00:21:37;15.60;99.90
12853;DHT22;6495;51.808;7.478;2023-05-10T00:24:06;15.60;99.90
12853;DHT22;6495;51.808;7.478;2023-05-10T00:26:35;15.60;99.90
12853;DHT22;6495;51.808;7.478;2023-05-10T00:29:03;15.60;99.90
12853;DHT22;6495;51.808;7.478;2023-05-10T00:31:31;15.60;99.90
12853;DHT22;6495;51.808;7.478;2023-05-10T00:33:59;15.50;99.90
12853;DHT22;6495;51.808;7.478;2023-05-10T00:36:28;15.60;99.90
12853;DHT22;6495;51.808;7.478;2023-05-10T00:38:57;15.50;99.90
12853;DHT22;6495;51.808;7.478;2023-05-10T00:41:26;15.50;99.90
12853;DHT22;6495;51.808;7.478;2023-05-10T00:43:55;15.50;99.90
12853;DHT22;6495;51.808;7.478;2023-05-10T00:46:23;15.50;99.90
12853;DHT22;6495;51.808;7.478;2023-05-10T00:48:52;15.50;99.90
12853;DHT22;6495;51.808;7.478;2023-05-10T00:51:21;15.40;99.90
12853;DHT22;6495;51.808;7.478;2023-05-10T00:53:51;15.40;99.90
12853;DHT22;6495;51.808;7.478;2023-05-10T00:56:19;15.40;99.90
12853;DHT22;6495;51.808;7.478;2023-05-10T00:58:49;15.30;99.90
12853;DHT22;6495;51.808;7.478;2023-05-10T01:01:19;15.30;99.90
12853;DHT22;6495;51.808;7.478;2023-05-10T01:03:48;15.30;99.90
12853;DHT22;6495;51.808;7.478;2023-05-10T01:06:16;15.20;99.90
12853;DHT22;6495;51.808;7.478;2023-05-10T01:08:44;15.20;99.90
12853;DHT22;6495;51.808;7.478;2023-05-10T01:11:13;15.10;99.90
12853;DHT22;6495;51.808;7.478;2023-05-10T01:13:43;15.10;99.90
12853;DHT22;6495;51.808;7.478;2023-05-10T01:16:19;15.10;99.90
12853;DHT22;6495;51.808;7.478;2023-05-10T01:18:48;15.00;99.90
12853;DHT22;6495;51.808;7.478;2023-05-10T01:21:21;15.00;99.90
12853;DHT22;6495;51.808;7.478;2023-05-10T01:24:13;15.00;99.90
12853;DHT22;6495;51.808;7.478;2023-05-10T01:27:17;15.00;99.90
12853;DHT22;6495;51.808;7.478;2023-05-10T01:30:08;15.00;99.90
12853;DHT22;6495;51.808;7.478;2023-05-10T01:33:11;15.00;99.90
12853;DHT22;6495;51.808;7.478;2023-05-10T01:35:50;15.00;99.90
12853;DHT22;6495;51.808;7.478;2023-05-10T01:38:29;15.00;99.90
12853;DHT22;6495;51.808;7.478;2023-05-10T01:41:11;15.00;99.90
12853;DHT22;6495;51.808;7.478;2023-05-10T01:43:51;14.90;99.90
12853;DHT22;6495;51.808;7.478;2023-05-10T01:46:28;14.80;99.90
12853;DHT22;6495;51.808;7.478;2023-05-10T01:49:08;14.70;99.90
12853;DHT22;6495;51.808;7.478;2023-05-10T01:51:42;14.70;99.90
12853;DHT22;6495;51.808;7.478;2023-05-10T01:54:17;14.60;99.90
12853;DHT22;6495;51.808;7.478;2023-05-10T01:56:50;14.50;99.90
12853;DHT22;6495;51.808;7.478;2023-05-10T01:59:28;14.50;99.90
12853;DHT22;6495;51.808;7.478;2023-05-10T02:01:59;14.40;99.90
12853;DHT22;6495;51.808;7.478;2023-05-10T02:04:33;14.40;99.90
12853;DHT22;6495;51.808;7.478;2023-05-10T02:07:05;14.40;99.90
12853;DHT22;6495;51.808;7.478;2023-05-10T02:09:35;14.40;99.90
12853;DHT22;6495;51.808;7.478;2023-05-10T02:12:05;14.40;99.90
12853;DHT22;6495;51.808;7.478;2023-05-10T02:14:36;14.40;99.90
12853;DHT22;6495;51.808;7.478;2023-05-10T02:17:06;14.40;99.90
12853;DHT22;6495;51.808;7.478;2023-05-10T02:19:40;14.40;99.90
12853;DHT22;6495;51.808;7.478;2023-05-10T02:22:10;14.40;99.90
12853;DHT22;6495;51.808;7.478;2023-05-10T02:24:40;14.40;99.90
12853;DHT22;6495;51.808;7.478;2023-05-10T02:27:09;14.40;99.90
12853;DHT22;6495;51.808;7.478;2023-05-10T02:29:39;14.40;99.90
12853;DHT22;6495;51.808;7.478;2023-05-10T02:32:10;14.40;99.90
12853;DHT22;6495;51.808;7.478;2023-05-10T02:34:42;14.40;99.90
12853;DHT22;6495;51.808;7.478;2023-05-10T02:37:14;14.40;99.90
12853;DHT22;6495;51.808;7.478;2023-05-10T02:39:46;14.30;99.90
12853;DHT22;6495;51.808;7.478;2023-05-10T02:42:17;14.40;99.90
12853;DHT22;6495;51.808;7.478;2023-05-10T02:44:48;14.40;99.90
12853;DHT22;6495;51.808;7.478;2023-05-10T02:47:20;14.40;99.90
12853;DHT22;6495;51.808;7.478;2023-05-10T02:49:49;14.30;99.90
12853;DHT22;6495;51.808;7.478;2023-05-10T02:52:21;14.30;99.90
12853;DHT22;6495;51.808;7.478;2023-05-10T02:54:55;14.40;99.90
12853;DHT22;6495;51.808;7.478;2023-05-10T02:57:32;14.40;99.90
12853;DHT22;6495;51.808;7.478;2023-05-10T03:00:02;14.40;99.90
12853;DHT22;6495;51.808;7.478;2023-05-10T03:02:32;14.40;99.90
12853;DHT22;6495;51.808;7.478;2023-05-10T03:05:01;14.40;99.90
12853;DHT22;6495;51.808;7.478;2023-05-10T03:07:30;14.40;99.90
12853;DHT22;6495;51.808;7.478;2023-05-10T03:09:58;14.40;99.90
12853;DHT22;6495;51.808;7.478;2023-05-10T03:12:33;14.40;99.90
12853;DHT22;6495;51.808;7.478;2023-05-10T03:15:24;14.40;99.90
12853;DHT22;6495;51.808;7.478;2023-05-10T03:18:03;14.40;99.90
12853;DHT22;6495;51.808;7.478;2023-05-10T03:20:41;14.40;99.90
12853;DHT22;6495;51.808;7.478;2023-05-10T03:23:13;14.40;99.90
12853;DHT22;6495;51.808;7.478;2023-05-10T03:25:50;14.40;99.90
12853;DHT22;6495;51.808;7.478;2023-05-10T03:28:20;14.40;99.90
12853;DHT22;6495;51.808;7.478;2023-05-10T03:30:49;14.40;99.90
12853;DHT22;6495;51.808;7.478;2023-05-10T03:33:20;14.40;99.90
12853;DHT22;6495;51.808;7.478;2023-05-10T03:35:50;14.40;99.90
12853;DHT22;6495;51.808;7.478;2023-05-10T03:38:18;14.40;99.90
12853;DHT22;6495;51.808;7.478;2023-05-10T03:40:46;14.40;99.90
12853;DHT22;6495;51.808;7.478;2023-05-10T03:43:14;14.40;99.90
12853;DHT22;6495;51.808;7.478;2023-05-10T03:45:42;14.40;99.90
12853;DHT22;6495;51.808;7.478;2023-05-10T03:48:11;14.40;99.90
12853;DHT22;6495;51.808;7.478;2023-05-10T03:50:41;14.40;99.90
12853;DHT22;6495;51.808;7.478;2023-05-10T03:53:10;14.40;99.90
12853;DHT22;6495;51.808;7.478;2023-05-10T03:55:39;14.40;99.90
12853;DHT22;6495;51.808;7.478;2023-05-10T03:58:10;14.40;99.90
12853;DHT22;6495;51.808;7.478;2023-05-10T04:00:38;14.40;99.90
12853;DHT22;6495;51.808;7.478;2023-05-10T04:03:10;14.40;99.90
12853;DHT22;6495;51.808;7.478;2023-05-10T04:05:39;14.40;99.90
12853;DHT22;6495;51.808;7.478;2023-05-10T04:08:07;14.40;99.90
12853;DHT22;6495;51.808;7.478;2023-05-10T04:10:37;14.40;99.90
12853;DHT22;6495;51.808;7.478;2023-05-10T04:13:05;14.30;99.90
12853;DHT22;6495;51.808;7.478;2023-05-10T04:15:33;14.30;99.90
12853;DHT22;6495;51.808;7.478;2023-05-10T04:18:02;14.30;99.90
12853;DHT22;6495;51.808;7.478;2023-05-10T04:20:33;14.30;99.90
12853;DHT22;6495;51.808;7.478;2023-05-10T04:23:02;14.30;99.90
12853;DHT22;6495;51.808;7.478;2023-05-10T04:25:30;14.30;99.90
12853;DHT22;6495;51.808;7.478;2023-05-10T04:28:08;14.30;99.90
12853;DHT22;6495;51.808;7.478;2023-05-10T04:30:37;14.30;99.90
12853;DHT22;6495;51.808;7.478;2023-05-10T04:33:05;14.30;99.90
12853;DHT22;6495;51.808;7.478;2023-05-10T04:35:34;14.30;99.90
12853;DHT22;6495;51.808;7.478;2023-05-10T04:38:03;14.30;99.90
12853;DHT22;6495;51.808;7.478;2023-05-10T04:40:31;14.30;99.90
12853;DHT22;6495;51.808;7.478;2023-05-10T04:42:59;14.30;99.90
12853;DHT22;6495;51.808;7.478;2023-05-10T04:45:29;14.30;99.90
12853;DHT22;6495;51.808;7.478;2023-05-10T04:47:57;14.30;99.90
12853;DHT22;6495;51.808;7.478;2023-05-10T04:50:26;14.30;99.90
12853;DHT22;6495;51.808;7.478;2023-05-10T04:52:54;14.30;99.90
12853;DHT22;6495;51.808;7.478;2023-05-10T04:55:37;14.30;99.90
12853;DHT22;6495;51.808;7.478;2023-05-10T04:58:10;14.30;99.90
12853;DHT22;6495;51.808;7.478;2023-05-10T05:00:40;14.30;99.90
12853;DHT22;6495;51.808;7.478;2023-05-10T05:03:09;14.30;99.90
12853;DHT22;6495;51.808;7.478;2023-05-10T05:05:37;14.30;99.90
12853;DHT22;6495;51.808;7.478;2023-05-10T05:08:06;14.30;99.90
12853;DHT22;6495;51.808;7.478;2023-05-10T05:10:34;14.30;99.90
12853;DHT22;6495;51.808;7.478;2023-05-10T05:13:02;14.30;99.90
12853;DHT22;6495;51.808;7.478;2023-05-10T05:15:30;14.30;99.90
12853;DHT22;6495;51.808;7.478;2023-05-10T05:18:00;14.30;99.90
12853;DHT22;6495;51.808;7.478;2023-05-10T05:20:32;14.30;99.90
12853;DHT22;6495;51.808;7.478;2023-05-10T05:23:00;14.30;99.90
12853;DHT22;6495;51.808;7.478;2023-05-10T05:25:29;14.30;99.90
12853;DHT22;6495;51.808;7.478;2023-05-10T05:27:57;14.30;99.90
12853;DHT22;6495;51.808;7.478;2023-05-10T05:30:25;14.30;99.90
12853;DHT22;6495;51.808;7.478;2023-05-10T05:32:54;14.30;99.90
12853;DHT22;6495;51.808;7.478;2023-05-10T05:35:24;14.30;99.90
12853;DHT22;6495;51.808;7.478;2023-05-10T05:37:53;14.30;99.90
12853;DHT22;6495;51.808;7.478;2023-05-10T05:40:21;14.30;99.90
12853;DHT22;6495;51.808;7.478;2023-05-10T05:42:50;14.30;99.90
12853;DHT22;6495;51.808;7.478;2023-05-10T05:45:19;14.30;99.90
12853;DHT22;6495;51.808;7.478;2023-05-10T05:47:48;14.30;99.90
12853;DHT22;6495;51.808;7.478;2023-05-10T05:50:16;14.30;99.90
12853;DHT22;6495;51.808;7.478;2023-05-10T05:52:54;14.30;99.90
12853;DHT22;6495;51.808;7.478;2023-05-10T05:55:24;14.30;99.90
12853;DHT22;6495;51.808;7.478;2023-05-10T05:57:52;14.30;99.90
12853;DHT22;6495;51.808;7.478;2023-05-10T06:00:24;14.40;99.90
12853;DHT22;6495;51.808;7.478;2023-05-10T06:02:52;14.30;99.90
12853;DHT22;6495;51.808;7.478;2023-05-10T06:05:21;14.40;99.90
12853;DHT22;6495;51.808;7.478;2023-05-10T06:07:49;14.40;99.90
12853;DHT22;6495;51.808;7.478;2023-05-10T06:10:24;14.40;99.90
12853;DHT22;6495;51.808;7.478;2023-05-10T06:12:55;14.40;99.90
12853;DHT22;6495;51.808;7.478;2023-05-10T06:15:23;14.40;99.90
12853;DHT22;6495;51.808;7.478;2023-05-10T06:17:52;14.40;99.90
12853;DHT22;6495;51.808;7.478;2023-05-10T06:20:20;14.40;99.90
12853;DHT22;6495;51.808;7.478;2023-05-10T06:22:48;14.40;99.90
12853;DHT22;6495;51.808;7.478;2023-05-10T06:25:19;14.40;99.90
12853;DHT22;6495;51.808;7.478;2023-05-10T06:27:48;14.40;99.90
12853;DHT22;6495;51.808;7.478;2023-05-10T06:30:19;14.40;99.90
12853;DHT22;6495;51.808;7.478;2023-05-10T06:32:52;14.40;99.90
12853;DHT22;6495;51.808;7.478;2023-05-10T06:35:21;14.40;99.90
12853;DHT22;6495;51.808;7.478;2023-05-10T06:37:50;14.40;99.90
12853;DHT22;6495;51.808;7.478;2023-05-10T06:40:18;14.40;99.90
12853;DHT22;6495;51.808;7.478;2023-05-10T06:42:48;14.40;99.90
12853;DHT22;6495;51.808;7.478;2023-05-10T06:45:17;14.40;99.90
12853;DHT22;6495;51.808;7.478;2023-05-10T06:47:46;14.40;99.90
12853;DHT22;6495;51.808;7.478;2023-05-10T06:50:14;14.40;99.90
12853;DHT22;6495;51.808;7.478;2023-05-10T06:52:42;14.50;99.90
12853;DHT22;6495;51.808;7.478;2023-05-10T06:55:11;14.50;99.90
12853;DHT22;6495;51.808;7.478;2023-05-10T06:57:39;14.50;99.90
12853;DHT22;6495;51.808;7.478;2023-05-10T07:00:09;14.50;99.90
12853;DHT22;6495;51.808;7.478;2023-05-10T07:02:38;14.50;99.90
12853;DHT22;6495;51.808;7.478;2023-05-10T07:05:07;14.50;99.90
12853;DHT22;6495;51.808;7.478;2023-05-10T07:07:36;14.50;99.90
12853;DHT22;6495;51.808;7.478;2023-05-10T07:10:05;14.60;99.90
12853;DHT22;6495;51.808;7.478;2023-05-10T07:12:34;14.60;99.90
12853;DHT22;6495;51.808;7.478;2023-05-10T07:15:03;14.60;99.90
12853;DHT22;6495;51.808;7.478;2023-05-10T07:17:33;14.60;99.90
12853;DHT22;6495;51.808;7.478;2023-05-10T07:20:02;14.70;99.90
12853;DHT22;6495;51.808;7.478;2023-05-10T07:22:31;14.70;99.90
12853;DHT22;6495;51.808;7.478;2023-05-10T07:25:00;14.80;99.90
12853;DHT22;6495;51.808;7.478;2023-05-10T07:27:29;14.90;99.90
12853;DHT22;6495;51.808;7.478;2023-05-10T07:29:57;15.00;99.90
12853;DHT22;6495;51.808;7.478;2023-05-10T07:32:25;15.10;99.90
12853;DHT22;6495;51.808;7.478;2023-05-10T07:34:55;15.20;99.90
12853;DHT22;6495;51.808;7.478;2023-05-10T07:37:23;15.30;99.90
12853;DHT22;6495;51.808;7.478;2023-05-10T07:39:52;15.30;99.90
12853;DHT22;6495;51.808;7.478;2023-05-10T07:42:20;15.40;99.90
12853;DHT22;6495;51.808;7.478;2023-05-10T07:44:48;15.50;99.90
12853;DHT22;6495;51.808;7.478;2023-05-10T07:47:16;15.50;99.90
12853;DHT22;6495;51.808;7.478;2023-05-10T07:49:45;15.60;99.90
12853;DHT22;6495;51.808;7.478;2023-05-10T07:52:15;15.60;99.90
12853;DHT22;6495;51.808;7.478;2023-05-10T07:54:43;15.70;99.90
12853;DHT22;6495;51.808;7.478;2023-05-10T07:57:12;15.70;99.90
12853;DHT22;6495;51.808;7.478;2023-05-10T07:59:44;15.70;99.90
12853;DHT22;6495;51.808;7.478;2023-05-10T08:02:15;15.80;99.90
12853;DHT22;6495;51.808;7.478;2023-05-10T08:04:43;15.90;99.90
12853;DHT22;6495;51.808;7.478;2023-05-10T08:07:12;16.00;99.90
12853;DHT22;6495;51.808;7.478;2023-05-10T08:09:42;16.00;99.90
12853;DHT22;6495;51.808;7.478;2023-05-10T08:12:10;16.20;99.90
12853;DHT22;6495;51.808;7.478;2023-05-10T08:14:39;16.30;99.90
12853;DHT22;6495;51.808;7.478;2023-05-10T08:17:09;16.40;99.90
12853;DHT22;6495;51.808;7.478;2023-05-10T08:19:37;16.60;99.90
12853;DHT22;6495;51.808;7.478;2023-05-10T08:22:05;16.70;99.90
12853;DHT22;6495;51.808;7.478;2023-05-10T08:24:34;16.90;99.90
12853;DHT22;6495;51.808;7.478;2023-05-10T08:27:06;17.00;99.90
12853;DHT22;6495;51.808;7.478;2023-05-10T08:29:35;17.10;99.90
12853;DHT22;6495;51.808;7.478;2023-05-10T08:32:16;17.20;99.90
12853;DHT22;6495;51.808;7.478;2023-05-10T08:34:44;17.30;99.90
12853;DHT22;6495;51.808;7.478;2023-05-10T08:37:13;17.30;99.90
12853;DHT22;6495;51.808;7.478;2023-05-10T08:39:41;17.40;99.90
12853;DHT22;6495;51.808;7.478;2023-05-10T08:42:12;17.40;99.90
12853;DHT22;6495;51.808;7.478;2023-05-10T08:44:46;17.40;99.90
12853;DHT22;6495;51.808;7.478;2023-05-10T08:47:18;17.40;99.90
12853;DHT22;6495;51.808;7.478;2023-05-10T08:49:55;17.50;99.90
12853;DHT22;6495;51.808;7.478;2023-05-10T08:52:26;17.50;99.90
12853;DHT22;6495;51.808;7.478;2023-05-10T08:54:58;17.50;99.90
12853;DHT22;6495;51.808;7.478;2023-05-10T08:57:28;17.50;99.90
12853;DHT22;6495;51.808;7.478;2023-05-10T08:59:56;17.50;99.90
12853;DHT22;6495;51.808;7.478;2023-05-10T09:02:25;17.60;99.90
12853;DHT22;6495;51.808;7.478;2023-05-10T09:04:54;17.60;99.90
12853;DHT22;6495;51.808;7.478;2023-05-10T09:07:23;17.60;99.90
12853;DHT22;6495;51.808;7.478;2023-05-10T09:09:52;17.60;99.90
12853;DHT22;6495;51.808;7.478;2023-05-10T09:12:22;17.60;99.90
12853;DHT22;6495;51.808;7.478;2023-05-10T09:14:52;17.50;99.90
12853;DHT22;6495;51.808;7.478;2023-05-10T09:17:23;17.50;99.90
12853;DHT22;6495;51.808;7.478;2023-05-10T09:19:57;17.60;99.90
12853;DHT22;6495;51.808;7.478;2023-05-10T09:22:26;17.60;99.90
12853;DHT22;6495;51.808;7.478;2023-05-10T09:25:06;17.60;99.90
12853;DHT22;6495;51.808;7.478;2023-05-10T09:27:35;17.70;99.90
12853;DHT22;6495;51.808;7.478;2023-05-10T09:30:07;17.70;99.90
12853;DHT22;6495;51.808;7.478;2023-05-10T09:32:38;17.80;99.90
12853;DHT22;6495;51.808;7.478;2023-05-10T09:35:08;17.80;99.90
12853;DHT22;6495;51.808;7.478;2023-05-10T09:37:39;17.90;99.90
12853;DHT22;6495;51.808;7.478;2023-05-10T09:40:12;17.90;99.90
12853;DHT22;6495;51.808;7.478;2023-05-10T09:42:51;17.90;99.90
12853;DHT22;6495;51.808;7.478;2023-05-10T09:45:24;18.00;99.90
12853;DHT22;6495;51.808;7.478;2023-05-10T09:47:54;18.00;99.90
12853;DHT22;6495;51.808;7.478;2023-05-10T09:50:23;18.10;99.90
12853;DHT22;6495;51.808;7.478;2023-05-10T09:52:53;18.10;99.90
12853;DHT22;6495;51.808;7.478;2023-05-10T09:55:26;18.20;99.90
12853;DHT22;6495;51.808;7.478;2023-05-10T09:58:07;18.30;99.90
12853;DHT22;6495;51.808;7.478;2023-05-10T10:00:40;18.30;99.90
12853;DHT22;6495;51.808;7.478;2023-05-10T10:03:13;18.40;99.90
12853;DHT22;6495;51.808;7.478;2023-05-10T10:05:43;18.40;99.90
12853;DHT22;6495;51.808;7.478;2023-05-10T10:08:13;18.50;99.90
12853;DHT22;6495;51.808;7.478;2023-05-10T10:10:43;18.50;99.90
12853;DHT22;6495;51.808;7.478;2023-05-10T10:13:13;18.60;99.90
12853;DHT22;6495;51.808;7.478;2023-05-10T10:15:43;18.60;99.90
12853;DHT22;6495;51.808;7.478;2023-05-10T10:18:13;18.60;99.90
12853;DHT22;6495;51.808;7.478;2023-05-10T10:20:42;18.70;99.90
12853;DHT22;6495;51.808;7.478;2023-05-10T10:23:10;18.70;99.90
12853;DHT22;6495;51.808;7.478;2023-05-10T10:25:42;18.70;99.90
12853;DHT22;6495;51.808;7.478;2023-05-10T10:28:20;18.70;99.90
12853;DHT22;6495;51.808;7.478;2023-05-10T10:30:56;18.80;99.90
12853;DHT22;6495;51.808;7.478;2023-05-10T10:33:50;18.80;99.90
12853;DHT22;6495;51.808;7.478;2023-05-10T10:36:24;18.90;99.90
12853;DHT22;6495;51.808;7.478;2023-05-10T10:39:01;18.90;99.90
12853;DHT22;6495;51.808;7.478;2023-05-10T10:41:32;19.00;99.90
12853;DHT22;6495;51.808;7.478;2023-05-10T10:44:36;19.00;99.90
12853;DHT22;6495;51.808;7.478;2023-05-10T10:47:21;19.10;99.90
12853;DHT22;6495;51.808;7.478;2023-05-10T10:50:05;19.20;99.90
12853;DHT22;6495;51.808;7.478;2023-05-10T10:52:35;19.30;99.90
12853;DHT22;6495;51.808;7.478;2023-05-10T10:55:06;19.40;99.90
12853;DHT22;6495;51.808;7.478;2023-05-10T10:57:47;19.50;99.90
12853;DHT22;6495;51.808;7.478;2023-05-10T11:00:24;19.50;99.90
12853;DHT22;6495;51.808;7.478;2023-05-10T11:02:58;19.50;99.90
12853;DHT22;6495;51.808;7.478;2023-05-10T11:05:40;19.40;99.90
12853;DHT22;6495;51.808;7.478;2023-05-10T11:08:17;19.40;99.90
12853;DHT22;6495;51.808;7.478;2023-05-10T11:10:53;19.40;99.90
12853;DHT22;6495;51.808;7.478;2023-05-10T11:13:33;19.40;99.90
12853;DHT22;6495;51.808;7.478;2023-05-10T11:16:18;19.50;99.90
12853;DHT22;6495;51.808;7.478;2023-05-10T11:18:58;19.60;99.90
12853;DHT22;6495;51.808;7.478;2023-05-10T11:21:30;19.70;99.90
12853;DHT22;6495;51.808;7.478;2023-05-10T11:24:00;19.70;99.90
12853;DHT22;6495;51.808;7.478;2023-05-10T11:26:34;19.80;99.90
12853;DHT22;6495;51.808;7.478;2023-05-10T11:29:03;19.80;99.90
12853;DHT22;6495;51.808;7.478;2023-05-10T11:31:32;19.80;99.90
12853;DHT22;6495;51.808;7.478;2023-05-10T11:34:02;19.80;99.90
12853;DHT22;6495;51.808;7.478;2023-05-10T11:36:33;19.80;99.90
12853;DHT22;6495;51.808;7.478;2023-05-10T11:39:04;19.70;99.90
12853;DHT22;6495;51.808;7.478;2023-05-10T11:41:32;19.80;99.90
12853;DHT22;6495;51.808;7.478;2023-05-10T11:44:01;19.80;99.90
12853;DHT22;6495;51.808;7.478;2023-05-10T11:46:30;19.80;99.90
12853;DHT22;6495;51.808;7.478;2023-05-10T11:49:02;19.90;99.90
12853;DHT22;6495;51.808;7.478;2023-05-10T11:51:33;19.90;99.90
12853;DHT22;6495;51.808;7.478;2023-05-10T11:54:06;19.90;99.90
12853;DHT22;6495;51.808;7.478;2023-05-10T11:56:36;19.90;99.90
12853;DHT22;6495;51.808;7.478;2023-05-10T11:59:05;20.00;99.90
12853;DHT22;6495;51.808;7.478;2023-05-10T12:01:37;20.10;99.90
12853;DHT22;6495;51.808;7.478;2023-05-10T12:04:08;20.10;99.90
12853;DHT22;6495;51.808;7.478;2023-05-10T12:06:40;20.10;99.90
12853;DHT22;6495;51.808;7.478;2023-05-10T12:09:09;20.30;99.90
12853;DHT22;6495;51.808;7.478;2023-05-10T12:11:39;20.30;99.90
12853;DHT22;6495;51.808;7.478;2023-05-10T12:14:10;20.40;99.90
12853;DHT22;6495;51.808;7.478;2023-05-10T12:16:38;20.40;99.90
12853;DHT22;6495;51.808;7.478;2023-05-10T12:19:08;20.40;99.90
12853;DHT22;6495;51.808;7.478;2023-05-10T12:21:37;20.40;99.90
12853;DHT22;6495;51.808;7.478;2023-05-10T12:24:08;20.40;99.90
12853;DHT22;6495;51.808;7.478;2023-05-10T12:26:37;20.40;99.90
12853;DHT22;6495;51.808;7.478;2023-05-10T12:29:12;20.50;99.90
12853;DHT22;6495;51.808;7.478;2023-05-10T12:31:52;20.50;99.90
12853;DHT22;6495;51.808;7.478;2023-05-10T12:34:25;20.50;99.90
12853;DHT22;6495;51.808;7.478;2023-05-10T12:36:56;20.60;99.90
12853;DHT22;6495;51.808;7.478;2023-05-10T12:39:24;20.70;99.90
12853;DHT22;6495;51.808;7.478;2023-05-10T12:41:53;20.80;99.90
12853;DHT22;6495;51.808;7.478;2023-05-10T12:44:21;20.80;99.90
12853;DHT22;6495;51.808;7.478;2023-05-10T12:46:49;20.80;99.90
12853;DHT22;6495;51.808;7.478;2023-05-10T12:49:18;20.80;99.90
12853;DHT22;6495;51.808;7.478;2023-05-10T12:51:48;20.80;99.90
12853;DHT22;6495;51.808;7.478;2023-05-10T12:54:16;20.80;99.90
12853;DHT22;6495;51.808;7.478;2023-05-10T12:56:44;20.90;99.90
12853;DHT22;6495;51.808;7.478;2023-05-10T12:59:13;21.00;99.90
12853;DHT22;6495;51.808;7.478;2023-05-10T13:01:41;21.00;99.90
12853;DHT22;6495;51.808;7.478;2023-05-10T13:04:09;21.10;99.90
12853;DHT22;6495;51.808;7.478;2023-05-10T13:06:38;21.10;99.90
12853;DHT22;6495;51.808;7.478;2023-05-10T13:09:07;21.10;99.90
12853;DHT22;6495;51.808;7.478;2023-05-10T13:11:35;21.20;99.90
12853;DHT22;6495;51.808;7.478;2023-05-10T13:14:04;21.20;99.90
12853;DHT22;6495;51.808;7.478;2023-05-10T13:16:32;21.30;99.90
12853;DHT22;6495;51.808;7.478;2023-05-10T13:19:01;21.20;99.90
12853;DHT22;6495;51.808;7.478;2023-05-10T13:21:29;21.30;99.90
12853;DHT22;6495;51.808;7.478;2023-05-10T13:23:58;21.40;99.90
12853;DHT22;6495;51.808;7.478;2023-05-10T13:26:31;21.40;99.90
12853;DHT22;6495;51.808;7.478;2023-05-10T13:28:59;21.40;99.90
12853;DHT22;6495;51.808;7.478;2023-05-10T13:31:28;21.40;99.90
12853;DHT22;6495;51.808;7.478;2023-05-10T13:33:56;21.40;99.90
12853;DHT22;6495;51.808;7.478;2023-05-10T13:36:25;21.50;99.90
12853;DHT22;6495;51.808;7.478;2023-05-10T13:38:53;21.50;99.90
12853;DHT22;6495;51.808;7.478;2023-05-10T13:41:21;21.60;99.90
12853;DHT22;6495;51.808;7.478;2023-05-10T13:43:51;21.60;99.90
12853;DHT22;6495;51.808;7.478;2023-05-10T13:46:19;21.70;99.90
12853;DHT22;6495;51.808;7.478;2023-05-10T13:48:49;21.80;99.90
12853;DHT22;6495;51.808;7.478;2023-05-10T13:51:17;21.80;99.90
12853;DHT22;6495;51.808;7.478;2023-05-10T13:53:45;21.80;99.90
12853;DHT22;6495;51.808;7.478;2023-05-10T13:56:14;21.80;99.90
12853;DHT22;6495;51.808;7.478;2023-05-10T13:58:43;21.90;99.90
12853;DHT22;6495;51.808;7.478;2023-05-10T14:01:12;21.90;99.90
12853;DHT22;6495;51.808;7.478;2023-05-10T14:03:41;22.00;99.90
12853;DHT22;6495;51.808;7.478;2023-05-10T14:06:09;22.00;99.90
12853;DHT22;6495;51.808;7.478;2023-05-10T14:08:38;22.00;99.90
12853;DHT22;6495;51.808;7.478;2023-05-10T14:11:06;22.00;99.90
12853;DHT22;6495;51.808;7.478;2023-05-10T14:13:35;22.10;99.90
12853;DHT22;6495;51.808;7.478;2023-05-10T14:16:04;22.10;99.90
12853;DHT22;6495;51.808;7.478;2023-05-10T14:18:34;22.10;99.90
12853;DHT22;6495;51.808;7.478;2023-05-10T14:21:03;22.10;99.90
12853;DHT22;6495;51.808;7.478;2023-05-10T14:23:31;22.20;99.90
12853;DHT22;6495;51.808;7.478;2023-05-10T14:26:00;22.30;99.90
12853;DHT22;6495;51.808;7.478;2023-05-10T14:28:29;22.40;99.90
12853;DHT22;6495;51.808;7.478;2023-05-10T14:30:58;22.40;99.90
12853;DHT22;6495;51.808;7.478;2023-05-10T14:33:26;22.40;99.90
12853;DHT22;6495;51.808;7.478;2023-05-10T14:35:56;22.40;99.90
12853;DHT22;6495;51.808;7.478;2023-05-10T14:38:26;22.50;99.90
12853;DHT22;6495;51.808;7.478;2023-05-10T14:40:55;22.40;99.90
12853;DHT22;6495;51.808;7.478;2023-05-10T14:43:24;22.40;99.90
12853;DHT22;6495;51.808;7.478;2023-05-10T14:45:54;22.40;99.90
12853;DHT22;6495;51.808;7.478;2023-05-10T14:48:22;22.30;99.90
12853;DHT22;6495;51.808;7.478;2023-05-10T14:50:51;22.20;99.90
12853;DHT22;6495;51.808;7.478;2023-05-10T14:53:21;22.10;99.90
12853;DHT22;6495;51.808;7.478;2023-05-10T14:55:51;22.00;99.90
12853;DHT22;6495;51.808;7.478;2023-05-10T14:58:19;21.90;99.90
12853;DHT22;6495;51.808;7.478;2023-05-10T15:00:47;21.80;99.90
12853;DHT22;6495;51.808;7.478;2023-05-10T15:03:16;21.70;99.90
12853;DHT22;6495;51.808;7.478;2023-05-10T15:05:54;21.70;99.90
12853;DHT22;6495;51.808;7.478;2023-05-10T15:08:25;21.60;99.90
12853;DHT22;6495;51.808;7.478;2023-05-10T15:10:54;21.50;99.90
12853;DHT22;6495;51.808;7.478;2023-05-10T15:13:23;21.50;99.90
12853;DHT22;6495;51.808;7.478;2023-05-10T15:15:51;21.50;99.90
12853;DHT22;6495;51.808;7.478;2023-05-10T15:18:19;21.40;99.90
12853;DHT22;6495;51.808;7.478;2023-05-10T15:20:50;21.40;99.90
12853;DHT22;6495;51.808;7.478;2023-05-10T15:23:18;21.40;99.90
12853;DHT22;6495;51.808;7.478;2023-05-10T15:25:48;21.40;99.90
12853;DHT22;6495;51.808;7.478;2023-05-10T15:28:18;21.30;99.90
12853;DHT22;6495;51.808;7.478;2023-05-10T15:30:47;21.30;99.90
12853;DHT22;6495;51.808;7.478;2023-05-10T15:33:15;21.30;99.90
12853;DHT22;6495;51.808;7.478;2023-05-10T15:35:44;21.30;99.90
12853;DHT22;6495;51.808;7.478;2023-05-10T15:38:12;21.30;99.90
12853;DHT22;6495;51.808;7.478;2023-05-10T15:40:44;21.30;99.90
12853;DHT22;6495;51.808;7.478;2023-05-10T15:43:14;21.30;99.90
12853;DHT22;6495;51.808;7.478;2023-05-10T15:45:43;21.30;99.90
12853;DHT22;6495;51.808;7.478;2023-05-10T15:48:11;21.30;99.90
12853;DHT22;6495;51.808;7.478;2023-05-10T15:50:39;21.30;99.90
12853;DHT22;6495;51.808;7.478;2023-05-10T15:53:07;21.30;99.90
12853;DHT22;6495;51.808;7.478;2023-05-10T15:55:36;21.20;99.90
12853;DHT22;6495;51.808;7.478;2023-05-10T15:58:07;21.20;99.90
12853;DHT22;6495;51.808;7.478;2023-05-10T16:00:37;21.20;99.90
12853;DHT22;6495;51.808;7.478;2023-05-10T16:03:06;21.20;99.90
12853;DHT22;6495;51.808;7.478;2023-05-10T16:05:34;21.10;99.90
12853;DHT22;6495;51.808;7.478;2023-05-10T16:08:03;21.10;99.90